createdAt,value
2022-12-03T00:03:58.022Z,-0.61
2022-12-03T00:09:03.146Z,-0.64
2022-12-03T00:14:09.426Z,-0.64
2022-12-03T00:19:16.945Z,-0.66
2022-12-03T00:24:24.044Z,-0.72
2022-12-03T00:29:29.006Z,-0.70
2022-12-03T00:34:38.038Z,-0.61
2022-12-03T00:39:43.224Z,-0.70
2022-12-03T00:44:48.229Z,-0.67
2022-12-03T00:49:55.882Z,-0.63
2022-12-03T00:55:00.895Z,-0.65
2022-12-03T01:00:07.446Z,-0.58
2022-12-03T01:05:15.085Z,-0.56
2022-12-03T01:10:20.342Z,-0.72
2022-12-03T01:15:25.295Z,-0.58
2022-12-03T01:20:33.128Z,-0.60
2022-12-03T01:25:39.207Z,-0.76
2022-12-03T01:30:56.377Z,-0.63
2022-12-03T01:36:05.099Z,-0.66
2022-12-03T01:41:11.881Z,-0.60
2022-12-03T01:46:20.858Z,-0.68
2022-12-03T01:51:28.665Z,-0.69
2022-12-03T01:56:37.966Z,-0.82
2022-12-03T02:01:43.058Z,-0.92
2022-12-03T02:06:51.105Z,-0.70
2022-12-03T02:11:56.611Z,-0.79
2022-12-03T02:17:01.563Z,-0.72
2022-12-03T02:22:19.499Z,-0.81
2022-12-03T02:27:28.620Z,-0.66
2022-12-03T02:32:36.810Z,-0.69
2022-12-03T02:37:42.281Z,-0.76
2022-12-03T02:42:50.511Z,-0.76
2022-12-03T02:48:00.437Z,-0.77
2022-12-03T02:53:08.679Z,-0.73
2022-12-03T02:58:17.344Z,-0.81
2022-12-03T03:03:23.868Z,-0.76
2022-12-03T03:08:30.052Z,-0.66
2022-12-03T03:13:39.706Z,-0.76
2022-12-03T03:18:48.084Z,-0.73
2022-12-03T03:23:53.539Z,-0.80
2022-12-03T03:29:04.358Z,-0.83
2022-12-03T03:34:09.349Z,-0.77
2022-12-03T03:39:14.810Z,-0.80
2022-12-03T03:44:22.500Z,-0.81
2022-12-03T03:49:27.650Z,-0.66
2022-12-03T03:54:39.994Z,-0.72
2022-12-03T03:59:47.569Z,-0.75
2022-12-03T04:04:53.194Z,-0.69
2022-12-03T04:09:58.405Z,-0.70
2022-12-03T04:15:07.187Z,-0.67
2022-12-03T04:20:13.686Z,-0.75
2022-12-03T04:25:32.076Z,-0.67
2022-12-03T04:30:40.840Z,-0.67
2022-12-03T04:35:49.487Z,-0.80
2022-12-03T04:41:04.492Z,-0.66
2022-12-03T04:46:12.407Z,-0.90
2022-12-03T04:51:17.436Z,-0.87
2022-12-03T04:56:22.508Z,-0.92
2022-12-03T05:01:31.652Z,-0.85
2022-12-03T05:06:37.146Z,-0.86
2022-12-03T05:11:42.664Z,-0.84
2022-12-03T05:16:50.361Z,-0.91
2022-12-03T05:21:55.309Z,-0.99
2022-12-03T05:27:00.273Z,-0.91
2022-12-03T05:32:08.281Z,-0.84
2022-12-03T05:37:14.579Z,-0.99
2022-12-03T05:42:34.057Z,-0.92
2022-12-03T05:47:42.314Z,-0.91
2022-12-03T05:52:48.634Z,-0.98
2022-12-03T05:57:54.066Z,-0.97
2022-12-03T06:03:01.841Z,-1.01
2022-12-03T06:08:07.926Z,-1.04
2022-12-03T06:13:14.269Z,-0.97
2022-12-03T06:18:22.666Z,-0.95
2022-12-03T06:23:27.825Z,-0.85
2022-12-03T06:28:32.718Z,-0.92
2022-12-03T06:33:40.175Z,-0.90
2022-12-03T06:38:45.329Z,-0.92
2022-12-03T06:43:50.321Z,-0.90
2022-12-03T06:48:57.999Z,-0.81
2022-12-03T06:54:03.348Z,-0.74
2022-12-03T06:59:08.560Z,-0.86
2022-12-03T07:04:18.207Z,-0.85
2022-12-03T07:09:25.082Z,-0.95
2022-12-03T07:14:30.619Z,-0.78
2022-12-03T07:19:38.430Z,-0.84
2022-12-03T07:24:44.207Z,-0.89
2022-12-03T07:29:49.271Z,-0.89
2022-12-03T07:35:02.950Z,-0.76
2022-12-03T07:40:13.524Z,-0.72
2022-12-03T07:45:18.511Z,-0.89
2022-12-03T07:50:28.419Z,-0.88
2022-12-03T07:55:35.778Z,-0.75
2022-12-03T08:00:42.311Z,-0.78
2022-12-03T08:05:50.106Z,-0.70
2022-12-03T08:11:00.229Z,-0.80
2022-12-03T08:16:20.965Z,-0.75
2022-12-03T08:21:32.876Z,-0.59
2022-12-03T08:26:39.928Z,-0.58
2022-12-03T08:31:46.369Z,-0.46
2022-12-03T08:37:05.607Z,-0.48
2022-12-03T08:42:44.095Z,-0.49
2022-12-03T08:47:52.564Z,-0.50
2022-12-03T08:53:08.227Z,-0.24
2022-12-03T08:58:26.380Z,-0.28
2022-12-03T09:03:34.642Z,-0.36
2022-12-03T09:08:43.382Z,-0.25
2022-12-03T09:13:49.400Z,-0.28
2022-12-03T09:18:55.465Z,-0.21
2022-12-03T09:24:03.259Z,0.03
2022-12-03T09:29:12.159Z,-0.16
2022-12-03T09:34:17.695Z,-0.03
2022-12-03T09:39:25.634Z,-0.05
2022-12-03T09:44:32.557Z,0.11
2022-12-03T09:49:39.903Z,0.05
2022-12-03T09:54:47.851Z,0.09
2022-12-03T09:59:53.025Z,0.14
2022-12-03T10:04:59.038Z,0.23
2022-12-03T10:10:10.019Z,0.23
2022-12-03T10:15:39.183Z,0.20
2022-12-03T10:20:45.254Z,0.53
2022-12-03T10:25:57.887Z,0.44
2022-12-03T10:31:04.694Z,0.14
2022-12-03T10:36:25.091Z,0.28
2022-12-03T10:41:32.766Z,0.26
2022-12-03T10:46:37.838Z,0.43
2022-12-03T10:51:43.180Z,0.28
2022-12-03T10:56:52.467Z,0.35
2022-12-03T11:01:57.520Z,0.31
2022-12-03T11:07:07.472Z,0.43
2022-12-03T11:12:23.255Z,0.61
2022-12-03T11:17:53.107Z,0.75
2022-12-03T11:22:59.013Z,0.63
2022-12-03T11:28:33.903Z,0.69
2022-12-03T11:33:44.732Z,0.52
2022-12-03T11:39:02.632Z,0.54
2022-12-03T11:44:32.750Z,0.60
2022-12-03T11:49:50.732Z,0.71
2022-12-03T11:55:01.732Z,0.83
2022-12-03T12:00:22.247Z,0.86
2022-12-03T12:05:36.773Z,0.86
2022-12-03T12:10:44.012Z,1.22
2022-12-03T12:15:50.305Z,0.96
2022-12-03T12:20:57.836Z,1.04
2022-12-03T12:26:09.742Z,1.08
2022-12-03T12:31:15.326Z,0.98
2022-12-03T12:36:25.154Z,1.01
2022-12-03T12:41:30.353Z,1.04
2022-12-03T12:46:50.690Z,1.13
2022-12-03T12:51:58.429Z,1.15
2022-12-03T12:57:03.453Z,1.12
2022-12-03T13:02:37.408Z,1.24
2022-12-03T13:07:45.963Z,1.17
2022-12-03T13:12:51.087Z,1.22
2022-12-03T13:17:56.001Z,1.04
2022-12-03T13:23:03.486Z,0.96
2022-12-03T13:28:10.334Z,1.00
2022-12-03T13:33:27.266Z,1.01
2022-12-03T13:38:35.112Z,1.11
2022-12-03T13:43:44.602Z,1.18
2022-12-03T13:48:49.784Z,0.91
2022-12-03T13:53:57.747Z,0.92
2022-12-03T13:59:04.456Z,0.83
2022-12-03T14:04:09.599Z,0.75
2022-12-03T14:09:17.492Z,0.75
2022-12-03T14:14:22.466Z,0.72
2022-12-03T14:19:27.332Z,0.81
2022-12-03T14:24:34.970Z,0.66
2022-12-03T14:29:39.993Z,0.69
2022-12-03T14:34:45.194Z,0.71
2022-12-03T14:39:54.707Z,0.67
2022-12-03T14:45:00.984Z,0.80
2022-12-03T14:50:08.035Z,0.76
2022-12-03T14:55:15.615Z,0.73
2022-12-03T15:00:22.287Z,0.68
2022-12-03T15:05:28.943Z,0.70
2022-12-03T15:10:36.881Z,0.60
2022-12-03T15:15:41.848Z,0.70
2022-12-03T15:20:46.943Z,0.68
2022-12-03T15:25:54.587Z,0.76
2022-12-03T15:30:59.615Z,0.78
2022-12-03T15:36:04.592Z,0.82
2022-12-03T15:41:25.522Z,0.76
2022-12-03T15:46:31.697Z,0.68
2022-12-03T15:51:36.830Z,0.60
2022-12-03T15:56:45.378Z,0.72
2022-12-03T16:01:51.121Z,0.76
2022-12-03T16:06:59.078Z,0.72
2022-12-03T16:12:09.021Z,0.77
2022-12-03T16:17:14.181Z,0.59
2022-12-03T16:22:19.746Z,0.75
2022-12-03T16:27:27.797Z,0.76
2022-12-03T16:32:32.777Z,0.77
2022-12-03T16:37:38.097Z,0.81
2022-12-03T16:42:45.751Z,0.83
2022-12-03T16:47:50.706Z,0.86
2022-12-03T16:52:55.937Z,0.85
2022-12-03T16:58:03.539Z,0.90
2022-12-03T17:03:08.681Z,0.93
2022-12-03T17:08:13.774Z,1.01
2022-12-03T17:13:23.871Z,1.00
2022-12-03T17:18:29.042Z,1.07
2022-12-03T17:23:34.188Z,1.13
2022-12-03T17:28:42.520Z,1.04
2022-12-03T17:33:47.553Z,1.04
2022-12-03T17:38:55.664Z,1.08
2022-12-03T17:44:09.736Z,1.04
2022-12-03T17:49:16.199Z,1.07
2022-12-03T17:54:21.407Z,1.12
2022-12-03T17:59:28.980Z,1.10
2022-12-03T18:04:34.165Z,1.16
2022-12-03T18:09:39.212Z,1.09
2022-12-03T18:14:46.804Z,1.15
2022-12-03T18:19:51.938Z,1.12
2022-12-03T18:24:58.193Z,1.20
2022-12-03T18:30:06.016Z,1.14
2022-12-03T18:35:11.554Z,1.20
2022-12-03T18:40:21.616Z,1.18
2022-12-03T18:45:29.182Z,1.21
2022-12-03T18:50:34.183Z,1.25
2022-12-03T18:55:40.329Z,1.17
2022-12-03T19:00:47.929Z,1.31
2022-12-03T19:05:53.000Z,1.28
2022-12-03T19:11:02.683Z,1.27
2022-12-03T19:16:12.444Z,1.27
2022-12-03T19:21:19.234Z,1.26
2022-12-03T19:26:26.368Z,1.22
2022-12-03T19:31:34.278Z,1.29
2022-12-03T19:36:39.264Z,1.25
2022-12-03T19:41:45.153Z,1.26
2022-12-03T19:46:57.355Z,1.28
2022-12-03T19:52:02.470Z,1.27
2022-12-03T19:57:07.465Z,1.28
2022-12-03T20:02:15.401Z,1.23
2022-12-03T20:07:20.663Z,1.22
2022-12-03T20:12:27.056Z,1.25
2022-12-03T20:17:35.447Z,1.23
2022-12-03T20:22:40.681Z,1.21
2022-12-03T20:27:45.892Z,1.15
2022-12-03T20:32:54.035Z,1.06
2022-12-03T20:37:59.064Z,1.06
2022-12-03T20:43:06.373Z,1.00
2022-12-03T20:48:15.827Z,1.20
2022-12-03T20:53:25.356Z,1.18
2022-12-03T20:58:31.116Z,1.15
2022-12-03T21:03:38.833Z,1.12
2022-12-03T21:08:45.027Z,1.13
2022-12-03T21:13:52.371Z,1.11
2022-12-03T21:19:00.107Z,1.11
2022-12-03T21:24:05.062Z,1.13
2022-12-03T21:29:11.616Z,1.11
2022-12-03T21:34:19.144Z,1.11
2022-12-03T21:39:27.555Z,1.13
2022-12-03T21:44:35.270Z,1.24
2022-12-03T21:49:45.830Z,1.18
2022-12-03T21:54:50.727Z,1.12
2022-12-03T21:59:57.693Z,1.19
2022-12-03T22:05:05.365Z,1.17
2022-12-03T22:10:13.643Z,1.04
2022-12-03T22:15:19.704Z,1.06
2022-12-03T22:20:27.837Z,0.98
2022-12-03T22:25:33.691Z,1.08
2022-12-03T22:30:41.700Z,1.02
2022-12-03T22:35:57.709Z,1.07
2022-12-03T22:41:02.720Z,1.07
2022-12-03T22:46:10.559Z,1.09
2022-12-03T22:51:21.903Z,1.14
2022-12-03T22:56:28.711Z,1.21
2022-12-03T23:01:37.128Z,1.19
2022-12-03T23:06:44.931Z,1.25
2022-12-03T23:11:49.832Z,1.21
2022-12-03T23:16:54.800Z,1.22
2022-12-03T23:22:03.527Z,1.23
2022-12-03T23:27:08.556Z,1.21
2022-12-03T23:32:13.623Z,1.22
2022-12-03T23:37:21.261Z,1.18
2022-12-03T23:42:26.542Z,1.16
2022-12-03T23:47:31.596Z,1.16
2022-12-03T23:52:42.837Z,1.14
2022-12-03T23:57:48.874Z,1.09
